Time;durP1;ratioP1;P1;durP2;ratioP2;P2;SDS_P1;SDS_P2;PMS_P1;PMS_P2;Temp;Humidity;BMP_temperature;BMP_pressure;BME280_temperature;BME280_humidity;BME280_pressure;Samples;Min_cycle;Max_cycle;Signal;HPM_P1;HPM_P2
2023/07/18 00:01:20;;;;;;;5.00;2.50;;;14.70;99.90;;;;;;4995419;28;20497;-95
2023/07/18 00:03:52;;;;;;;3.22;2.05;;;14.70;99.90;;;;;;4980353;28;20120;-94
2023/07/18 00:06:27;;;;;;;5.95;1.83;;;14.70;99.90;;;;;;5015316;28;20133;-94
2023/07/18 00:08:53;;;;;;;6.47;2.10;;;14.60;99.90;;;;;;5015661;28;20045;-95
2023/07/18 00:11:27;;;;;;;3.13;1.55;;;14.30;99.90;;;;;;4991606;28;20038;-95
2023/07/18 00:14:09;;;;;;;4.70;1.80;;;14.60;99.90;;;;;;4999942;28;20392;-95
2023/07/18 00:16:44;;;;;;;5.50;2.05;;;14.60;99.90;;;;;;4999545;28;20042;-96
2023/07/18 00:19:20;;;;;;;5.43;2.20;;;14.50;99.90;;;;;;5016158;28;20048;-95
2023/07/18 00:21:52;;;;;;;3.35;1.65;;;14.50;99.90;;;;;;4999117;28;20649;-94
2023/07/18 00:24:21;;;;;;;5.82;1.90;;;14.50;99.90;;;;;;4998456;28;20051;-95
2023/07/18 00:26:47;;;;;;;5.55;1.90;;;14.50;99.90;;;;;;5011571;28;20058;-95
2023/07/18 00:29:16;;;;;;;4.82;2.53;;;15.10;99.90;;;;;;5009206;28;20060;-94
2023/07/18 00:31:53;;;;;;;4.63;2.20;;;14.50;99.90;;;;;;5013673;28;20049;-94
2023/07/18 00:34:25;;;;;;;7.00;2.40;;;14.40;99.90;;;;;;5017399;28;20037;-95
2023/07/18 00:36:55;;;;;;;3.92;2.00;;;14.60;99.90;;;;;;4998991;28;20049;-94
2023/07/18 00:39:23;;;;;;;7.88;2.13;;;14.40;99.90;;;;;;5035582;28;20128;-95
2023/07/18 00:42:00;;;;;;;6.68;1.70;;;14.40;99.90;;;;;;5031320;28;20075;-95
2023/07/18 00:44:26;;;;;;;7.18;2.08;;;14.40;99.90;;;;;;5005035;28;20037;-95
2023/07/18 00:46:55;;;;;;;4.72;1.67;;;14.40;99.90;;;;;;5011510;28;20125;-95
2023/07/18 00:49:37;;;;;;;4.68;1.75;;;13.90;99.90;;;;;;5015014;28;20051;-94
2023/07/18 00:52:06;;;;;;;5.80;2.20;;;14.40;99.90;;;;;;5004125;28;20045;-95
2023/07/18 00:54:39;;;;;;;6.22;1.83;;;14.30;99.90;;;;;;5018620;28;20180;-95
2023/07/18 00:57:09;;;;;;;5.55;1.90;;;14.30;99.90;;;;;;5031861;28;20506;-95
2023/07/18 00:59:39;;;;;;;5.78;1.92;;;14.40;99.90;;;;;;5034785;28;20072;-94
2023/07/18 01:02:10;;;;;;;4.55;2.42;;;14.30;99.90;;;;;;5018874;28;20345;-95
2023/07/18 01:04:39;;;;;;;5.68;1.75;;;14.40;99.90;;;;;;5018565;28;20047;-94
2023/07/18 01:07:05;;;;;;;4.50;1.92;;;14.40;99.90;;;;;;5028949;28;20119;-95
2023/07/18 01:09:31;;;;;;;5.65;1.95;;;14.40;99.90;;;;;;5028328;28;20079;-95
2023/07/18 01:12:00;;;;;;;7.45;1.90;;;14.40;99.90;;;;;;5019336;28;20049;-95
2023/07/18 01:14:26;;;;;;;5.88;1.90;;;14.40;99.90;;;;;;5034324;28;20037;-96
2023/07/18 01:16:55;;;;;;;4.75;2.15;;;14.40;99.90;;;;;;5002502;28;20040;-95
2023/07/18 01:19:26;;;;;;;5.95;1.88;;;14.40;99.90;;;;;;5019279;28;20048;-94
2023/07/18 01:21:55;;;;;;;4.30;1.80;;;14.40;99.90;;;;;;5017471;28;20273;-96
2023/07/18 01:24:24;;;;;;;7.60;2.17;;;14.40;99.90;;;;;;5026719;28;20083;-95
2023/07/18 01:26:52;;;;;;;6.82;1.80;;;14.30;99.90;;;;;;5050691;28;20041;-95
2023/07/18 01:29:19;;;;;;;5.47;1.90;;;14.40;99.90;;;;;;5034144;28;20116;-94
2023/07/18 01:31:48;;;;;;;4.95;2.00;;;14.40;99.90;;;;;;5039793;28;20055;-95
2023/07/18 01:34:14;;;;;;;3.47;1.58;;;14.30;99.90;;;;;;5026671;28;20044;-94
2023/07/18 01:36:41;;;;;;;4.20;1.63;;;14.30;99.90;;;;;;5032523;28;20072;-94
2023/07/18 01:39:09;;;;;;;5.32;2.17;;;14.30;99.90;;;;;;5015792;28;20041;-96
2023/07/18 01:41:37;;;;;;;4.95;2.13;;;14.20;99.90;;;;;;5036651;28;20098;-95
2023/07/18 01:44:04;;;;;;;10.48;2.20;;;14.20;99.90;;;;;;5046593;28;20068;-95
2023/07/18 01:46:32;;;;;;;3.53;1.60;;;14.20;99.90;;;;;;5017713;28;20041;-94
2023/07/18 01:49:04;;;;;;;3.75;1.50;;;14.20;99.90;;;;;;5004926;28;20040;-95
2023/07/18 01:51:30;;;;;;;6.70;1.92;;;14.20;99.90;;;;;;5036878;28;20037;-95
2023/07/18 01:53:59;;;;;;;4.47;2.10;;;14.20;99.90;;;;;;5014167;28;20043;-94
2023/07/18 01:56:40;;;;;;;4.88;1.88;;;14.20;99.90;;;;;;5011144;28;20041;-96
2023/07/18 01:59:11;;;;;;;5.82;2.00;;;14.20;99.90;;;;;;4993887;28;20391;-95
2023/07/18 02:01:37;;;;;;;5.35;1.85;;;14.20;99.90;;;;;;5021633;28;20124;-95
2023/07/18 02:04:09;;;;;;;6.07;1.90;;;14.20;99.90;;;;;;5039054;28;20049;-94
2023/07/18 02:06:37;;;;;;;5.45;2.00;;;14.20;99.90;;;;;;5025107;28;20076;-95
2023/07/18 02:09:09;;;;;;;4.68;2.00;;;14.50;99.90;;;;;;5017802;28;20029;-95
2023/07/18 02:11:43;;;;;;;3.35;1.77;;;14.10;99.90;;;;;;5034737;28;20043;-95
2023/07/18 02:14:09;;;;;;;7.07;2.55;;;14.20;99.90;;;;;;5029804;28;20116;-96
2023/07/18 02:16:46;;;;;;;4.88;2.10;;;14.20;99.90;;;;;;5006611;28;20387;-95
2023/07/18 02:19:13;;;;;;;;;;;14.20;99.90;;;;;;5012204;28;20033;-95
2023/07/18 02:21:39;;;;;;;6.00;2.15;;;14.20;99.90;;;;;;5032752;28;20413;-93
2023/07/18 02:24:05;;;;;;;6.55;2.38;;;14.20;99.90;;;;;;5019756;28;20045;-94
2023/07/18 02:26:31;;;;;;;8.07;2.30;;;14.20;99.90;;;;;;5036086;28;20041;-93
2023/07/18 02:28:56;;;;;;;7.78;2.25;;;14.20;99.90;;;;;;5031421;28;20048;-96
2023/07/18 02:31:22;;;;;;;6.65;1.98;;;14.20;99.90;;;;;;5018087;28;20176;-94
2023/07/18 02:33:48;;;;;;;8.95;2.25;;;14.20;99.90;;;;;;5017971;28;20120;-95
2023/07/18 02:36:21;;;;;;;5.35;2.22;;;14.20;99.90;;;;;;5001248;28;20142;-95
2023/07/18 02:38:51;;;;;;;7.22;1.95;;;14.00;99.90;;;;;;5012206;28;20748;-94
2023/07/18 02:41:17;;;;;;;5.40;2.08;;;13.90;99.90;;;;;;5001551;28;20465;-94
2023/07/18 02:43:46;;;;;;;6.30;2.47;;;14.30;99.90;;;;;;5021695;28;20038;-94
2023/07/18 02:46:14;;;;;;;6.15;2.30;;;14.30;99.90;;;;;;5020374;28;20048;-95
2023/07/18 02:48:39;;;;;;;7.50;2.45;;;14.30;99.90;;;;;;4998454;28;20037;-95
2023/07/18 02:51:11;;;;;;;5.68;2.88;;;14.30;99.90;;;;;;5028441;28;20595;-94
2023/07/18 02:53:39;;;;;;;10.23;2.80;;;14.30;99.90;;;;;;4997578;28;20671;-93
2023/07/18 02:56:09;;;;;;;6.53;2.08;;;14.30;99.90;;;;;;4980357;28;20052;-96
2023/07/18 02:58:35;;;;;;;7.57;2.63;;;14.30;99.90;;;;;;4983593;28;20072;-96
2023/07/18 03:01:01;;;;;;;8.02;2.65;;;14.30;99.90;;;;;;5001164;28;20046;-96
2023/07/18 03:03:34;;;;;;;8.10;2.53;;;14.30;99.90;;;;;;5001997;28;20041;-96
2023/07/18 03:06:07;;;;;;;7.78;2.30;;;14.30;99.90;;;;;;5006026;28;20057;-95
2023/07/18 03:08:39;;;;;;;6.50;2.53;;;14.20;99.90;;;;;;5016121;28;20087;-95
2023/07/18 03:11:05;;;;;;;7.30;2.30;;;14.30;99.90;;;;;;5017063;28;20033;-95
2023/07/18 03:13:31;;;;;;;4.40;2.15;;;14.30;99.90;;;;;;5001507;28;20041;-96
2023/07/18 03:16:04;;;;;;;5.32;2.40;;;14.30;99.90;;;;;;5019641;28;20087;-95
2023/07/18 03:18:30;;;;;;;5.68;2.35;;;14.30;99.90;;;;;;5006368;28;20037;-95
2023/07/18 03:21:05;;;;;;;6.70;2.42;;;14.20;99.90;;;;;;5003758;28;20045;-95
2023/07/18 03:23:31;;;;;;;5.05;2.40;;;14.20;99.90;;;;;;4994073;28;20041;-95
2023/07/18 03:26:03;;;;;;;6.72;2.30;;;14.10;99.90;;;;;;5000662;28;20049;-95
2023/07/18 03:28:32;;;;;;;6.00;2.33;;;14.30;99.90;;;;;;5002096;28;20038;-95
2023/07/18 03:30:57;;;;;;;6.05;2.15;;;14.10;99.90;;;;;;5026483;28;20057;-95
2023/07/18 03:33:23;;;;;;;6.68;2.75;;;14.10;99.90;;;;;;5014245;28;20040;-95
2023/07/18 03:35:49;;;;;;;6.47;2.15;;;14.10;99.90;;;;;;5019693;28;20072;-96
2023/07/18 03:38:18;;;;;;;5.82;2.30;;;14.10;99.90;;;;;;5013467;28;20095;-95
2023/07/18 03:40:43;;;;;;;6.53;2.35;;;14.10;99.90;;;;;;5029572;28;20116;-95
2023/07/18 03:43:09;;;;;;;6.82;2.08;;;14.10;99.90;;;;;;5018913;28;20195;-95
2023/07/18 03:45:35;;;;;;;8.25;2.50;;;14.10;99.90;;;;;;5001484;28;20037;-95
2023/07/18 03:48:01;;;;;;;4.70;2.28;;;14.10;99.90;;;;;;5000830;28;20045;-95
2023/07/18 03:50:29;;;;;;;4.75;2.30;;;14.10;99.90;;;;;;5034892;28;20041;-95
2023/07/18 03:52:55;;;;;;;9.50;2.53;;;14.10;99.90;;;;;;5016111;28;20068;-96
2023/07/18 03:55:29;;;;;;;8.80;2.40;;;14.20;99.90;;;;;;5029609;28;20134;-96
2023/07/18 03:57:55;;;;;;;4.13;2.17;;;13.90;99.90;;;;;;5034382;28;20047;-94
2023/07/18 04:00:23;;;;;;;4.88;2.58;;;14.20;99.90;;;;;;5003095;28;20040;-95
2023/07/18 04:02:49;;;;;;;8.57;2.47;;;14.20;99.90;;;;;;5033963;28;20041;-95
2023/07/18 04:05:18;;;;;;;8.00;2.50;;;14.20;99.90;;;;;;5020424;28;20071;-95
2023/07/18 04:07:45;;;;;;;5.70;2.58;;;14.00;99.90;;;;;;5031636;28;20085;-94
2023/07/18 04:10:21;;;;;;;6.38;2.67;;;14.20;99.90;;;;;;5036089;28;20064;-96
2023/07/18 04:12:46;;;;;;;4.45;2.40;;;14.30;99.90;;;;;;5018899;28;20124;-94
2023/07/18 04:15:16;;;;;;;7.03;2.30;;;14.30;99.90;;;;;;5054352;28;20101;-93
2023/07/18 04:17:45;;;;;;;4.32;1.85;;;14.30;99.90;;;;;;5037892;28;20040;-95
2023/07/18 04:20:19;;;;;;;8.77;2.80;;;14.10;99.90;;;;;;5019431;28;20041;-94
2023/07/18 04:22:45;;;;;;;6.07;3.08;;;14.20;99.90;;;;;;5025485;28;20037;-94
2023/07/18 04:25:11;;;;;;;6.43;3.00;;;14.40;99.90;;;;;;5035712;28;20052;-94
2023/07/18 04:27:37;;;;;;;6.70;2.60;;;14.50;99.90;;;;;;5017966;28;20131;-94
2023/07/18 04:30:07;;;;;;;6.22;2.60;;;14.50;99.90;;;;;;5033666;28;20072;-95
2023/07/18 04:32:33;;;;;;;8.45;2.85;;;14.60;99.90;;;;;;5016388;28;20072;-95
2023/07/18 04:34:59;;;;;;;8.53;3.00;;;14.50;99.90;;;;;;5015984;28;20038;-94
2023/07/18 04:37:25;;;;;;;6.65;2.33;;;14.70;99.90;;;;;;4998836;28;20530;-94
2023/07/18 04:39:51;;;;;;;7.70;2.55;;;14.70;99.90;;;;;;4983680;28;20132;-95
2023/07/18 04:42:17;;;;;;;4.90;2.20;;;14.80;99.90;;;;;;5016117;28;20124;-94
2023/07/18 04:44:43;;;;;;;6.78;2.58;;;14.90;99.90;;;;;;4998706;28;20037;-95
2023/07/18 04:47:14;;;;;;;7.60;2.80;;;15.00;99.90;;;;;;4997500;28;20492;-95
2023/07/18 04:49:39;;;;;;;8.20;2.63;;;15.10;99.90;;;;;;4989908;28;20072;-94
2023/07/18 04:52:07;;;;;;;9.15;2.28;;;15.20;99.90;;;;;;4982615;28;20037;-94
2023/07/18 04:54:33;;;;;;;10.18;2.53;;;15.30;99.90;;;;;;5012565;28;20125;-94
2023/07/18 04:56:59;;;;;;;6.63;2.20;;;15.30;99.90;;;;;;4980384;28;20060;-95
2023/07/18 04:59:32;;;;;;;5.53;2.42;;;15.40;99.90;;;;;;4999416;28;20419;-95
2023/07/18 05:02:04;;;;;;;5.85;2.30;;;15.50;99.90;;;;;;4998178;28;20077;-93
2023/07/18 05:04:32;;;;;;;7.35;2.10;;;15.30;99.90;;;;;;4981357;28;20040;-94
2023/07/18 05:07:06;;;;;;;6.72;2.72;;;15.50;99.90;;;;;;4997599;28;20042;-95
2023/07/18 05:09:41;;;;;;;8.13;2.63;;;15.60;99.90;;;;;;5000616;28;20097;-95
2023/07/18 05:12:10;;;;;;;6.95;2.33;;;15.60;99.90;;;;;;4990007;28;20042;-95
2023/07/18 05:14:41;;;;;;;7.93;3.28;;;15.50;99.90;;;;;;4984330;28;20472;-95
2023/07/18 05:17:20;;;;;;;8.57;2.72;;;15.80;99.90;;;;;;4999598;28;20033;-96
2023/07/18 05:19:48;;;;;;;5.78;2.63;;;15.80;99.90;;;;;;5009186;28;20028;-96
2023/07/18 05:22:25;;;;;;;7.53;2.95;;;15.90;99.90;;;;;;5009048;28;20053;-96
2023/07/18 05:24:54;;;;;;;5.22;2.33;;;15.90;99.90;;;;;;4984638;28;20045;-95
2023/07/18 05:27:25;;;;;;;6.30;2.35;;;15.90;99.90;;;;;;4976903;28;20042;-96
2023/07/18 05:29:51;;;;;;;6.72;2.88;;;15.60;99.90;;;;;;5007255;28;20045;-96
2023/07/18 05:32:19;;;;;;;11.02;2.50;;;16.20;99.90;;;;;;5013849;28;20047;-96
2023/07/18 05:34:45;;;;;;;8.45;2.70;;;16.10;99.90;;;;;;5022204;28;20495;-96
2023/07/18 05:37:11;;;;;;;5.32;2.83;;;16.20;99.90;;;;;;5021325;28;20041;-95
2023/07/18 05:39:37;;;;;;;6.45;2.38;;;16.30;99.90;;;;;;5010184;28;20068;-95
2023/07/18 05:42:03;;;;;;;7.60;2.50;;;16.40;99.90;;;;;;4998708;28;20098;-96
2023/07/18 05:44:29;;;;;;;8.77;2.60;;;16.50;99.90;;;;;;5053184;28;20044;-96
2023/07/18 05:46:54;;;;;;;6.18;2.42;;;16.40;99.90;;;;;;5023413;28;20048;-96
2023/07/18 05:49:20;;;;;;;6.40;2.70;;;16.40;99.90;;;;;;5019631;28;20048;-96
2023/07/18 05:51:46;;;;;;;4.70;2.72;;;16.50;99.90;;;;;;5001476;28;20063;-94
2023/07/18 05:54:14;;;;;;;8.60;3.10;;;16.10;99.90;;;;;;5027169;28;20125;-96
2023/07/18 05:56:41;;;;;;;8.95;3.03;;;16.30;99.90;;;;;;5006732;28;20063;-95
2023/07/18 05:59:10;;;;;;;7.15;2.60;;;16.10;99.90;;;;;;5005768;28;20392;-96
2023/07/18 06:01:36;;;;;;;6.30;2.88;;;16.20;99.90;;;;;;5038888;28;20067;-96
2023/07/18 06:04:02;;;;;;;5.35;3.00;;;16.20;99.90;;;;;;5049595;28;20119;-96
2023/07/18 06:06:27;;;;;;;8.73;3.03;;;16.20;99.90;;;;;;5006032;28;20064;-96
2023/07/18 06:08:54;;;;;;;7.43;2.78;;;16.30;99.90;;;;;;5024003;28;20103;-96
2023/07/18 06:11:26;;;;;;;8.85;3.03;;;16.30;99.90;;;;;;5017717;28;20397;-96
2023/07/18 06:13:55;;;;;;;7.90;2.92;;;16.40;99.90;;;;;;5029033;28;20041;-96
2023/07/18 06:16:21;;;;;;;8.02;2.83;;;16.40;99.90;;;;;;5040944;28;20102;-95
2023/07/18 06:18:47;;;;;;;6.22;2.65;;;16.40;99.90;;;;;;5021197;28;20041;-93
2023/07/18 06:21:12;;;;;;;6.85;3.10;;;16.50;99.90;;;;;;5005696;28;20044;-95
2023/07/18 06:23:38;;;;;;;7.28;2.97;;;16.60;99.90;;;;;;4992435;28;20098;-96
2023/07/18 06:26:04;;;;;;;6.45;2.80;;;16.60;99.90;;;;;;5021604;28;20048;-96
2023/07/18 06:28:31;;;;;;;5.35;2.53;;;16.60;99.90;;;;;;5040536;28;20037;-96
2023/07/18 06:30:57;;;;;;;7.10;3.03;;;;;;;;;;5021957;28;20091;-96
2023/07/18 06:33:25;;;;;;;9.63;2.90;;;16.80;99.90;;;;;;5022106;28;20685;-96
2023/07/18 06:35:55;;;;;;;6.43;2.70;;;17.00;99.90;;;;;;5036522;28;20739;-95
2023/07/18 06:38:24;;;;;;;5.90;2.70;;;;;;;;;;5014947;28;20052;-96
2023/07/18 07:06:32;;;;;;;5.38;1.90;;;23.50;99.90;;;;;;4967568;28;20166;-96
2023/07/18 07:13:04;;;;;;;8.25;2.20;;;25.00;99.90;;;;;;4967326;28;20041;-96
2023/07/18 07:15:30;;;;;;;;;;;24.70;99.90;;;;;;4992112;28;20037;-95
2023/07/18 07:17:56;;;;;;;4.93;1.88;;;24.10;99.90;;;;;;5016013;28;19916;-96
2023/07/18 07:20:24;;;;;;;6.73;2.00;;;23.80;99.90;;;;;;5004613;28;20051;-95
2023/07/18 07:22:53;;;;;;;6.38;2.28;;;23.50;99.90;;;;;;5037224;28;20044;-95
2023/07/18 07:25:19;;;;;;;5.75;1.98;;;24.10;99.90;;;;;;5013514;28;20045;-96
2023/07/18 07:27:48;;;;;;;5.68;1.90;;;25.10;99.90;;;;;;5000475;28;20115;-96
2023/07/18 07:30:17;;;;;;;8.38;2.28;;;26.10;99.90;;;;;;5031222;28;20052;-96
2023/07/18 07:32:44;;;;;;;4.47;2.00;;;27.30;99.90;;;;;;5027865;28;20045;-96
2023/07/18 07:35:13;;;;;;;7.30;1.85;;;27.30;99.90;;;;;;5015346;28;20065;-96
2023/07/18 07:37:40;;;;;;;5.47;1.90;;;27.80;99.90;;;;;;5017251;28;20041;-96
2023/07/18 07:40:11;;;;;;;5.32;1.95;;;28.00;99.90;;;;;;5035809;28;20047;-95
2023/07/18 07:42:38;;;;;;;5.40;2.28;;;28.30;99.90;;;;;;5033969;28;20051;-96
2023/07/18 07:45:05;;;;;;;4.60;2.00;;;28.40;99.90;;;;;;5020258;28;20052;-96
2023/07/18 07:47:31;;;;;;;5.93;2.10;;;28.40;99.90;;;;;;5001705;28;20045;-96
2023/07/18 07:49:57;;;;;;;7.93;1.97;;;27.90;99.90;;;;;;5012977;28;20113;-96
2023/07/18 07:52:23;;;;;;;6.80;2.50;;;27.00;99.90;;;;;;5004495;28;20037;-95
2023/07/18 07:54:48;;;;;;;4.70;1.83;;;26.20;99.90;;;;;;5035804;28;20480;-96
2023/07/18 07:57:15;;;;;;;7.67;2.17;;;25.30;99.90;;;;;;5023556;28;20412;-96
2023/07/18 07:59:43;;;;;;;4.28;1.90;;;24.70;99.90;;;;;;5013609;28;20124;-96
2023/07/18 08:02:09;;;;;;;5.85;1.67;;;24.20;99.90;;;;;;4996592;28;21246;-96
2023/07/18 08:04:36;;;;;;;6.00;1.50;;;23.60;99.90;;;;;;5020926;28;20047;-95
2023/07/18 08:07:03;;;;;;;7.65;1.83;;;23.30;99.90;;;;;;5009564;28;20052;-95
2023/07/18 08:09:29;;;;;;;5.40;1.80;;;23.20;99.90;;;;;;5019120;28;20068;-96
2023/07/18 08:12:00;;;;;;;4.75;1.80;;;23.10;99.90;;;;;;5018378;28;20063;-96
2023/07/18 08:14:26;;;;;;;7.45;2.15;;;22.90;99.90;;;;;;5020625;28;20036;-96
2023/07/18 08:16:53;;;;;;;4.25;1.27;;;22.90;99.90;;;;;;5022735;28;20075;-95
2023/07/18 08:19:19;;;;;;;3.88;1.20;;;22.70;99.90;;;;;;5005321;28;20530;-95
2023/07/18 08:21:45;;;;;;;6.40;1.60;;;22.70;99.90;;;;;;5017575;28;20475;-95
2023/07/18 08:24:11;;;;;;;3.23;1.33;;;22.70;99.90;;;;;;5003391;28;20103;-96
2023/07/18 08:26:36;;;;;;;4.17;1.20;;;22.60;99.90;;;;;;4998433;28;20045;-96
2023/07/18 08:29:02;;;;;;;1.67;1.07;;;22.60;99.90;;;;;;5031105;28;20115;-96
2023/07/18 08:31:29;;;;;;;3.83;1.25;;;22.70;99.90;;;;;;5013883;28;20057;-96
2023/07/18 08:33:58;;;;;;;5.17;1.33;;;23.20;99.90;;;;;;5018703;28;20373;-96
2023/07/18 08:36:27;;;;;;;4.45;1.33;;;23.20;99.90;;;;;;5012535;28;20084;-96
2023/07/18 08:38:53;;;;;;;3.65;1.30;;;23.20;99.90;;;;;;5000960;28;20029;-96
2023/07/18 08:41:19;;;;;;;3.63;1.30;;;23.90;99.90;;;;;;5035523;28;20041;-96
2023/07/18 08:43:46;;;;;;;4.03;1.15;;;24.80;99.90;;;;;;5015431;28;20042;-96
2023/07/18 08:46:14;;;;;;;3.75;1.10;;;25.70;99.90;;;;;;4999658;28;20045;-96
2023/07/18 08:48:47;;;;;;;3.25;1.00;;;26.30;99.90;;;;;;5009448;28;20125;-96
2023/07/18 08:51:14;;;;;;;3.55;1.05;;;26.80;99.90;;;;;;5019983;28;20483;-96
2023/07/18 08:53:43;;;;;;;2.80;1.05;;;27.10;99.90;;;;;;5003120;28;20036;-96
2023/07/18 08:56:09;;;;;;;2.10;0.88;;;27.20;99.90;;;;;;5030078;28;20504;-96
2023/07/18 08:58:37;;;;;;;2.65;0.63;;;27.00;99.90;;;;;;5019118;28;20052;-96
2023/07/18 09:01:04;;;;;;;3.15;1.10;;;26.30;99.90;;;;;;5019466;28;20052;-96
2023/07/18 09:03:30;;;;;;;3.03;0.95;;;25.90;99.90;;;;;;5013482;28;20492;-96
2023/07/18 09:05:57;;;;;;;4.95;1.00;;;26.00;99.90;;;;;;4997965;28;20122;-95
2023/07/18 09:08:23;;;;;;;3.28;0.93;;;26.10;99.90;;;;;;5026264;28;20029;-96
2023/07/18 09:11:12;;;;;;;2.97;0.80;;;25.90;99.90;;;;;;5005434;28;20036;-96
2023/07/18 09:13:41;;;;;;;1.88;0.57;;;25.70;99.70;;;;;;5010991;28;20135;-96
2023/07/18 09:16:17;;;;;;;3.15;0.80;;;25.60;99.90;;;;;;5008330;28;20084;-96
2023/07/18 09:18:50;;;;;;;2.45;0.75;;;25.30;98.00;;;;;;5003409;28;20049;-96
2023/07/18 09:21:17;;;;;;;2.88;0.95;;;24.80;98.60;;;;;;5014010;28;20377;-96
2023/07/18 09:23:44;;;;;;;3.08;0.70;;;24.80;99.80;;;;;;5001876;28;20033;-96
2023/07/18 09:26:12;;;;;;;4.07;0.70;;;24.60;99.70;;;;;;5051604;28;20040;-95
2023/07/18 09:28:38;;;;;;;2.65;0.63;;;24.70;99.80;;;;;;5011620;28;20040;-95
2023/07/18 09:31:18;;;;;;;2.20;0.60;;;24.80;99.50;;;;;;4993133;28;20132;-95
2023/07/18 09:33:54;;;;;;;1.88;0.63;;;24.90;99.80;;;;;;5013187;28;20047;-96
2023/07/18 09:36:21;;;;;;;1.65;0.70;;;25.00;99.90;;;;;;4996108;28;20107;-94
2023/07/18 09:38:48;;;;;;;2.55;0.70;;;25.00;99.70;;;;;;5003291;28;20656;-95
2023/07/18 09:41:18;;;;;;;;;;;24.90;99.60;;;;;;5015742;28;20041;-95
2023/07/18 09:43:44;;;;;;;2.63;0.65;;;24.70;99.70;;;;;;4994766;28;20051;-95
2023/07/18 09:46:15;;;;;;;2.67;0.82;;;24.40;99.50;;;;;;5000947;28;20132;-95
2023/07/18 09:48:43;;;;;;;2.95;0.90;;;24.20;98.90;;;;;;5013775;28;20443;-96
2023/07/18 09:51:22;;;;;;;1.33;0.65;;;24.20;99.20;;;;;;5014547;28;20056;-95
2023/07/18 09:53:48;;;;;;;3.10;0.85;;;24.20;99.50;;;;;;4996933;28;20038;-94
2023/07/18 09:56:15;;;;;;;2.75;0.80;;;24.40;99.90;;;;;;4997532;28;20040;-94
2023/07/18 09:58:43;;;;;;;2.90;0.70;;;24.70;99.90;;;;;;5006578;28;20103;-94
2023/07/18 10:01:22;;;;;;;;;;;;;;;;;;;;;
2023/07/18 10:04:13;;;;;;;2.92;0.75;;;25.20;99.60;;;;;;5015606;28;20392;-95
2023/07/18 10:06:42;;;;;;;1.67;0.68;;;25.50;98.00;;;;;;4977722;28;20038;-94
2023/07/18 10:09:11;;;;;;;4.30;1.35;;;25.30;98.60;;;;;;4994189;28;20041;-94
2023/07/18 10:19:57;;;;;;;3.15;0.70;;;23.90;99.30;;;;;;5001340;28;20049;-95
2023/07/18 10:23:31;;;;;;;;;;;;;;;;;;;;;
2023/07/18 10:26:41;;;;;;;3.38;0.90;;;23.10;99.90;;;;;;4995309;28;20504;-95
2023/07/18 10:29:24;;;;;;;3.60;0.80;;;22.90;99.90;;;;;;4984538;28;20048;-94
2023/07/18 10:31:54;;;;;;;2.35;0.85;;;22.70;99.90;;;;;;4997299;28;20045;-95
2023/07/18 10:34:27;;;;;;;5.13;0.95;;;22.60;99.90;;;;;;5014892;28;20099;-95
2023/07/18 10:36:59;;;;;;;1.73;0.60;;;22.40;99.90;;;;;;5017960;28;20415;-95
2023/07/18 10:39:43;;;;;;;2.17;0.73;;;22.40;99.90;;;;;;5016991;28;20048;-95
2023/07/18 10:42:29;;;;;;;5.63;1.02;;;22.30;99.90;;;;;;5018102;28;21519;-95
2023/07/18 10:45:00;;;;;;;2.30;0.82;;;22.20;99.90;;;;;;5029939;28;20041;-95
2023/07/18 10:47:28;;;;;;;3.22;0.80;;;22.10;99.90;;;;;;5019011;28;20033;-94
2023/07/18 10:49:55;;;;;;;3.67;0.80;;;22.00;99.90;;;;;;5020411;28;20045;-95
2023/07/18 10:52:23;;;;;;;1.52;0.70;;;21.90;99.90;;;;;;5020849;28;20037;-94
2023/07/18 10:54:56;;;;;;;3.05;0.90;;;21.90;99.90;;;;;;5020717;28;20037;-95
2023/07/18 10:57:38;;;;;;;3.72;0.90;;;21.90;99.90;;;;;;5020639;28;20045;-94
2023/07/18 11:00:05;;;;;;;2.55;1.08;;;21.80;99.90;;;;;;5021303;28;20041;-95
2023/07/18 11:02:42;;;;;;;2.60;0.85;;;21.80;99.90;;;;;;5013819;28;20045;-94
2023/07/18 11:05:11;;;;;;;3.05;1.00;;;21.80;99.90;;;;;;5018018;28;20044;-95
2023/07/18 11:07:41;;;;;;;4.25;1.13;;;21.80;99.90;;;;;;5033459;28;20091;-95
2023/07/18 11:10:11;;;;;;;2.75;1.27;;;21.90;99.90;;;;;;4988832;28;20086;-95
2023/07/18 11:12:37;;;;;;;3.15;1.00;;;21.90;99.90;;;;;;5002193;28;20037;-94
2023/07/18 11:15:06;;;;;;;3.15;1.30;;;22.00;99.90;;;;;;5018735;28;20132;-95
2023/07/18 11:17:32;;;;;;;3.28;0.88;;;22.20;99.90;;;;;;4999872;28;20080;-96
2023/07/18 11:19:58;;;;;;;1.77;0.57;;;22.60;99.90;;;;;;5004451;28;20075;-94
2023/07/18 11:22:24;;;;;;;3.13;1.00;;;22.90;99.90;;;;;;5020167;28;20045;-94
2023/07/18 11:24:51;;;;;;;2.92;0.80;;;23.30;99.90;;;;;;5035565;28;20636;-95
2023/07/18 11:27:30;;;;;;;2.42;0.75;;;23.50;99.90;;;;;;5003172;28;20513;-94
2023/07/18 11:30:04;;;;;;;5.43;1.15;;;23.60;99.90;;;;;;5018328;28;20060;-94
2023/07/18 11:32:37;;;;;;;2.95;0.90;;;23.80;99.90;;;;;;5025825;28;20087;-94
2023/07/18 11:35:06;;;;;;;3.85;0.70;;;23.60;99.90;;;;;;5018948;28;20033;-95
2023/07/18 11:37:33;;;;;;;4.45;1.10;;;23.50;99.90;;;;;;5034851;28;20041;-96
2023/07/18 11:40:00;;;;;;;2.83;0.90;;;23.20;99.90;;;;;;5036049;28;20052;-96
2023/07/18 11:42:47;;;;;;;3.00;1.00;;;23.10;99.90;;;;;;5014554;28;20072;-94
2023/07/18 11:45:16;;;;;;;2.50;0.80;;;23.20;99.90;;;;;;5008653;28;20756;-95
2023/07/18 11:47:43;;;;;;;3.15;1.00;;;23.30;99.90;;;;;;5012110;28;20076;-96
2023/07/18 11:50:15;;;;;;;2.78;0.82;;;23.30;99.90;;;;;;5044439;28;20114;-95
2023/07/18 11:52:51;;;;;;;1.92;0.70;;;23.00;99.90;;;;;;5031410;28;20485;-95
2023/07/18 11:55:22;;;;;;;2.70;0.73;;;22.90;99.90;;;;;;5030705;28;20089;-95
2023/07/18 11:57:48;;;;;;;2.28;0.85;;;22.90;99.90;;;;;;5034836;28;20041;-95
2023/07/18 12:00:16;;;;;;;5.20;1.00;;;22.80;99.90;;;;;;5035613;28;20056;-95
2023/07/18 12:02:44;;;;;;;3.35;0.80;;;22.50;99.90;;;;;;5022153;28;20454;-96
2023/07/18 12:05:52;;;;;;;3.00;1.02;;;22.40;99.90;;;;;;5024167;28;20041;-96
2023/07/18 12:09:16;;;;;;;;;;;;;;;;;;;;;
2023/07/18 12:14:58;;;;;;;3.50;1.13;;;21.20;99.90;;;;;;4977984;28;20609;-96
2023/07/18 12:17:33;;;;;;;3.20;1.20;;;20.80;99.90;;;;;;5017781;28;20107;-95
2023/07/18 12:20:07;;;;;;;3.15;0.90;;;20.60;99.90;;;;;;5005273;28;20069;-95
2023/07/18 12:23:02;;;;;;;2.53;1.02;;;20.40;99.90;;;;;;4988955;28;20072;-95
2023/07/18 12:25:41;;;;;;;2.00;0.93;;;20.10;99.90;;;;;;5003645;28;20099;-95
2023/07/18 13:01:26;;;;;;;7.28;1.08;;;20.50;99.90;;;;;;4803467;29;20524;-95
2023/07/18 13:08:32;;;;;;;1.92;0.68;;;20.80;99.90;;;;;;4768430;29;20461;-94
2023/07/18 13:30:52;;;;;;;;;;;;;;;;;;;;;
2023/07/18 13:37:47;;;;;;;2.28;0.90;;;21.00;99.90;;;;;;4782162;29;20591;-95
2023/07/18 13:44:23;;;;;;;;;;;;;;;;;;;;;
2023/07/18 13:51:49;;;;;;;4.97;1.20;;;21.40;99.90;;;;;;4841379;29;20053;-95
2023/07/18 13:55:32;;;;;;;2.53;0.75;;;21.40;99.90;;;;;;4833868;29;20081;-95
2023/07/18 13:58:22;;;;;;;1.30;0.80;;;21.40;99.90;;;;;;4852784;29;20070;-96
2023/07/18 14:00:57;;;;;;;1.92;0.80;;;21.40;99.90;;;;;;4879481;29;20057;-95
2023/07/18 14:03:33;;;;;;;2.22;0.70;;;21.30;99.90;;;;;;4869103;29;20091;-95
2023/07/18 14:07:00;;;;;;;1.00;0.70;;;21.40;99.90;;;;;;5009175;28;20045;-94
2023/07/18 14:09:43;;;;;;;;;;;;;;;;;;;;;
2023/07/18 14:12:18;;;;;;;2.70;0.90;;;21.40;99.90;;;;;;5002761;28;20661;-96
2023/07/18 14:15:12;;;;;;;1.85;0.63;;;21.40;99.90;;;;;;4994540;28;20073;-95
2023/07/18 14:17:38;;;;;;;1.73;0.80;;;21.50;99.90;;;;;;4983058;28;20053;-96
2023/07/18 14:20:05;;;;;;;3.42;1.13;;;21.50;99.90;;;;;;4998006;28;20492;-95
2023/07/18 14:22:32;;;;;;;3.47;1.02;;;21.50;99.90;;;;;;4994675;28;20045;-95
2023/07/18 14:24:58;;;;;;;1.50;0.87;;;21.50;99.90;;;;;;4986110;28;20511;-95
2023/07/18 14:27:23;;;;;;;2.92;0.60;;;21.50;99.90;;;;;;5013452;28;20487;-94
2023/07/18 14:29:49;;;;;;;0.73;0.47;;;21.50;99.90;;;;;;5001820;28;20051;-95
2023/07/18 14:32:15;;;;;;;1.37;0.60;;;21.40;99.90;;;;;;5017885;28;20037;-96
2023/07/18 14:34:41;;;;;;;2.00;0.60;;;21.30;99.90;;;;;;5018524;28;20045;-95
2023/07/18 14:37:07;;;;;;;2.15;0.98;;;21.40;99.90;;;;;;5006153;28;20133;-95
2023/07/18 14:39:38;;;;;;;1.60;0.88;;;21.40;99.90;;;;;;5018428;28;20378;-96
2023/07/18 14:42:04;;;;;;;2.35;1.13;;;21.40;99.90;;;;;;5018157;28;20147;-94
2023/07/18 14:44:31;;;;;;;1.37;0.93;;;21.40;99.90;;;;;;5000791;28;20052;-95
2023/07/18 14:46:59;;;;;;;1.80;0.82;;;21.40;99.90;;;;;;4996702;28;20543;-94
2023/07/18 14:49:28;;;;;;;2.38;1.00;;;21.40;99.90;;;;;;5026230;28;20052;-95
2023/07/18 14:52:02;;;;;;;2.10;0.77;;;21.40;99.90;;;;;;5001168;28;20045;-96
2023/07/18 14:54:34;;;;;;;2.28;0.90;;;21.40;99.90;;;;;;4999424;28;20045;-95
2023/07/18 14:57:01;;;;;;;2.03;0.80;;;21.50;99.90;;;;;;5010036;28;20042;-95
2023/07/18 14:59:33;;;;;;;3.43;0.90;;;21.50;99.90;;;;;;5022785;28;20045;-95
2023/07/18 15:02:07;;;;;;;1.35;0.70;;;21.50;99.90;;;;;;5017899;28;20934;-95
2023/07/18 15:04:33;;;;;;;1.42;0.70;;;21.50;99.90;;;;;;5019406;28;20128;-94